Time;durP1;ratioP1;P1;durP2;ratioP2;P2;SDS_P1;SDS_P2;PMS_P1;PMS_P2;Temp;Humidity;BMP_temperature;BMP_pressure;BME280_temperature;BME280_humidity;BME280_pressure;Samples;Min_cycle;Max_cycle;Signal;HPM_P1;HPM_P2
2023/03/27 00:01:14;;;;;;;4.87;1.70;;;6.20;99.90;;;;;;4974211;28;20535;-73
2023/03/27 00:03:41;;;;;;;3.17;1.43;;;6.20;99.90;;;;;;4974474;28;20232;-73
2023/03/27 00:06:15;;;;;;;5.60;1.80;;;6.20;99.90;;;;;;4973711;28;20213;-73
2023/03/27 00:08:46;;;;;;;7.37;2.23;;;6.20;99.90;;;;;;4969453;28;20221;-75
2023/03/27 00:11:13;;;;;;;12.00;2.53;;;6.20;99.90;;;;;;4970651;28;20207;-74
2023/03/27 00:13:39;;;;;;;7.37;2.17;;;6.20;99.90;;;;;;4968905;28;20266;-71
2023/03/27 00:16:05;;;;;;;5.03;1.80;;;6.10;99.90;;;;;;4970444;28;20677;-73
2023/03/27 00:18:32;;;;;;;7.07;1.83;;;6.00;99.90;;;;;;4970379;28;20218;-73
2023/03/27 00:21:00;;;;;;;8.33;1.70;;;6.00;99.90;;;;;;4970903;28;20213;-74
2023/03/27 00:23:28;;;;;;;6.17;1.87;;;5.90;99.90;;;;;;4971553;28;20290;-73
2023/03/27 00:25:55;;;;;;;8.83;2.53;;;5.90;99.90;;;;;;4972314;28;20210;-72
2023/03/27 00:28:21;;;;;;;6.53;1.83;;;5.90;99.90;;;;;;4972573;28;20198;-73
2023/03/27 00:30:47;;;;;;;7.50;1.43;;;5.90;99.90;;;;;;4971794;28;20217;-72
2023/03/27 00:33:13;;;;;;;6.03;1.80;;;5.90;99.90;;;;;;4970344;28;20231;-73
2023/03/27 00:35:45;;;;;;;5.47;1.70;;;5.90;99.90;;;;;;4971219;28;20321;-73
2023/03/27 00:38:12;;;;;;;5.70;2.00;;;5.80;99.90;;;;;;4968655;28;20229;-73
2023/03/27 00:40:38;;;;;;;5.80;1.87;;;5.80;99.90;;;;;;4969432;28;20175;-73
2023/03/27 00:43:25;;;;;;;3.70;1.90;;;5.80;99.90;;;;;;4970140;28;20275;-73
2023/03/27 00:45:56;;;;;;;6.53;3.03;;;5.80;99.90;;;;;;4966802;28;20681;-72
2023/03/27 00:48:24;;;;;;;6.27;1.60;;;5.90;99.90;;;;;;4969150;28;20334;-73
2023/03/27 00:50:50;;;;;;;8.77;1.93;;;5.80;99.90;;;;;;4970598;28;20228;-73
2023/03/27 00:53:23;;;;;;;6.37;2.47;;;5.90;99.90;;;;;;4973003;28;20210;-73
2023/03/27 00:55:51;;;;;;;9.47;1.50;;;5.80;99.90;;;;;;4989371;28;20268;-74
2023/03/27 00:58:40;;;;;;;4.20;1.80;;;5.80;99.90;;;;;;4973644;28;20197;-70
2023/03/27 01:01:08;;;;;;;5.23;1.77;;;5.80;99.90;;;;;;4972027;28;20696;-73
2023/03/27 01:03:34;;;;;;;5.40;2.07;;;5.70;99.90;;;;;;4954137;28;20210;-74
2023/03/27 01:06:01;;;;;;;7.97;2.60;;;5.70;99.90;;;;;;4949180;28;20202;-73
2023/03/27 01:08:30;;;;;;;6.93;1.83;;;5.60;99.90;;;;;;4953777;28;20247;-74
2023/03/27 01:11:11;;;;;;;5.60;1.87;;;5.60;99.90;;;;;;4950923;28;20206;-73
2023/03/27 01:14:00;;;;;;;6.47;1.77;;;5.40;99.90;;;;;;4951756;28;20182;-74
2023/03/27 01:17:05;;;;;;;8.03;1.80;;;5.50;99.90;;;;;;4954199;29;20191;-74
2023/03/27 01:19:34;;;;;;;4.60;1.83;;;5.40;99.90;;;;;;4954251;28;20907;-74
2023/03/27 01:22:38;;;;;;;7.33;2.47;;;5.40;99.90;;;;;;4954377;28;20183;-74
2023/03/27 01:25:38;;;;;;;7.07;2.33;;;5.30;99.90;;;;;;4951106;29;20224;-74
2023/03/27 01:28:28;;;;;;;8.30;1.60;;;5.30;99.90;;;;;;4949033;29;20231;-72
2023/03/27 01:31:28;;;;;;;6.20;1.90;;;5.20;99.90;;;;;;4951005;29;20218;-73
2023/03/27 01:34:41;;;;;;;9.37;2.00;;;5.30;99.90;;;;;;4953458;29;20227;-73
2023/03/27 01:47:13;;;;;;;7.63;1.57;;;5.50;99.90;;;;;;4969277;28;20228;-74
2023/03/27 01:49:52;;;;;;;6.90;2.03;;;5.50;99.90;;;;;;4973524;28;20189;-71
2023/03/27 01:52:26;;;;;;;4.90;1.80;;;5.50;99.90;;;;;;4971905;28;20178;-74
2023/03/27 01:54:57;;;;;;;4.33;2.03;;;5.40;99.90;;;;;;4953994;28;20644;-74
2023/03/27 01:57:33;;;;;;;7.37;2.03;;;5.40;99.90;;;;;;4954498;28;20293;-73
2023/03/27 02:00:11;;;;;;;3.57;1.73;;;5.40;99.90;;;;;;4954557;28;20214;-73
2023/03/27 02:02:38;;;;;;;6.10;1.50;;;5.40;99.90;;;;;;4951589;28;20216;-71
2023/03/27 02:05:12;;;;;;;5.70;1.90;;;5.30;99.90;;;;;;4947154;28;20422;-71
2023/03/27 02:07:43;;;;;;;4.50;1.60;;;5.30;99.90;;;;;;4947658;28;20189;-73
2023/03/27 02:10:14;;;;;;;2.50;1.33;;;5.30;99.90;;;;;;4951486;28;20163;-73
2023/03/27 02:12:45;;;;;;;2.93;1.50;;;5.40;99.90;;;;;;4950335;28;20206;-70
2023/03/27 02:15:23;;;;;;;3.03;1.43;;;5.40;99.90;;;;;;4952480;28;20199;-71
2023/03/27 02:17:55;;;;;;;4.23;1.50;;;5.40;99.90;;;;;;4950490;28;20210;-71
2023/03/27 02:20:22;;;;;;;6.87;1.70;;;5.30;99.90;;;;;;4950814;28;20222;-72
2023/03/27 02:22:48;;;;;;;4.43;1.83;;;5.40;99.90;;;;;;4949947;28;20207;-72
2023/03/27 02:25:43;;;;;;;2.70;2.00;;;5.40;99.90;;;;;;4952629;28;20174;-72
2023/03/27 02:28:36;;;;;;;6.67;1.80;;;5.30;99.90;;;;;;4950567;28;20218;-71
2023/03/27 02:31:08;;;;;;;3.47;1.60;;;5.30;99.90;;;;;;4951750;28;20227;-72
2023/03/27 02:33:48;;;;;;;7.83;1.97;;;5.20;99.90;;;;;;4953003;28;20697;-72
2023/03/27 02:36:20;;;;;;;2.50;1.60;;;5.30;99.90;;;;;;4950773;28;20213;-72
2023/03/27 02:38:54;;;;;;;5.97;1.63;;;5.20;99.90;;;;;;4945663;28;20629;-71
2023/03/27 02:41:39;;;;;;;4.57;1.77;;;5.10;99.90;;;;;;4950257;28;20202;-72
2023/03/27 02:44:27;;;;;;;2.97;1.53;;;5.00;99.90;;;;;;4946286;28;20596;-71
2023/03/27 02:47:10;;;;;;;4.23;1.13;;;4.90;99.90;;;;;;4940900;28;20392;-70
2023/03/27 02:49:52;;;;;;;2.17;1.23;;;4.80;99.90;;;;;;4949650;28;20175;-70
2023/03/27 02:52:28;;;;;;;3.90;1.37;;;4.70;99.90;;;;;;4950045;28;20646;-72
2023/03/27 02:55:21;;;;;;;3.13;1.17;;;4.60;99.90;;;;;;4950897;28;20207;-72
2023/03/27 02:57:52;;;;;;;6.00;1.83;;;4.70;99.90;;;;;;4950875;28;20241;-70
2023/03/27 03:00:24;;;;;;;4.33;1.20;;;4.60;99.90;;;;;;4947901;28;20209;-72
2023/03/27 03:03:01;;;;;;;2.53;1.40;;;4.60;99.90;;;;;;4951340;28;20214;-72
2023/03/27 03:05:27;;;;;;;3.30;1.30;;;4.50;99.90;;;;;;4950755;28;20354;-73
2023/03/27 03:07:53;;;;;;;2.73;0.97;;;4.60;99.90;;;;;;4953008;28;20314;-72
2023/03/27 03:10:20;;;;;;;2.17;1.03;;;4.60;99.90;;;;;;4954147;28;20307;-72
2023/03/27 03:12:45;;;;;;;5.03;1.43;;;4.60;99.90;;;;;;4952795;28;20694;-72
2023/03/27 03:15:11;;;;;;;1.83;1.07;;;4.70;99.90;;;;;;4953290;28;20207;-72
2023/03/27 03:17:37;;;;;;;1.90;1.00;;;4.60;99.90;;;;;;4946686;28;20701;-70
2023/03/27 03:20:06;;;;;;;2.57;1.40;;;4.70;99.90;;;;;;4951714;28;20309;-72
2023/03/27 03:22:32;;;;;;;2.83;1.20;;;4.60;99.90;;;;;;4951845;28;20242;-71
2023/03/27 03:24:58;;;;;;;2.77;1.30;;;4.60;99.90;;;;;;4953208;28;20175;-72
2023/03/27 03:27:23;;;;;;;2.67;0.80;;;4.70;99.90;;;;;;4951819;28;20233;-72
2023/03/27 03:29:49;;;;;;;3.50;1.23;;;4.60;99.90;;;;;;4952412;28;20211;-72
2023/03/27 03:32:15;;;;;;;1.50;1.03;;;4.60;99.90;;;;;;4951525;28;20205;-72
2023/03/27 03:34:45;;;;;;;3.63;1.50;;;4.60;99.90;;;;;;4952357;28;20717;-71
2023/03/27 03:37:11;;;;;;;2.73;1.40;;;4.50;99.90;;;;;;4951253;28;20551;-72
2023/03/27 03:39:36;;;;;;;2.77;1.57;;;4.40;99.90;;;;;;4952704;28;20218;-72
2023/03/27 03:42:02;;;;;;;4.93;1.10;;;4.40;99.90;;;;;;4952478;28;20210;-72
2023/03/27 03:44:28;;;;;;;3.70;1.40;;;4.40;99.90;;;;;;4951179;28;20245;-72
2023/03/27 03:46:54;;;;;;;2.10;1.50;;;4.40;99.90;;;;;;4950163;28;20558;-72
2023/03/27 03:49:20;;;;;;;4.53;1.80;;;4.40;99.90;;;;;;4953124;28;20194;-72
2023/03/27 03:51:45;;;;;;;4.97;1.80;;;4.30;99.90;;;;;;4952573;28;20207;-69
2023/03/27 03:54:11;;;;;;;3.17;1.50;;;4.20;99.90;;;;;;4948683;28;20203;-72
2023/03/27 03:56:40;;;;;;;6.23;1.80;;;4.10;99.90;;;;;;4952554;28;20667;-73
2023/03/27 03:59:10;;;;;;;2.63;1.45;;;4.20;99.90;;;;;;4952421;28;20427;-73
2023/03/27 04:01:36;;;;;;;6.03;1.70;;;4.10;99.90;;;;;;4949166;28;20653;-72
2023/03/27 04:04:03;;;;;;;4.47;1.77;;;4.10;99.90;;;;;;4951060;28;20175;-73
2023/03/27 04:06:29;;;;;;;4.50;1.23;;;4.00;99.90;;;;;;4952521;28;20299;-74
2023/03/27 04:08:56;;;;;;;3.13;1.40;;;4.00;99.90;;;;;;4952167;28;20199;-73
2023/03/27 04:11:21;;;;;;;5.40;1.90;;;3.90;99.90;;;;;;4951365;28;20618;-73
2023/03/27 04:13:48;;;;;;;2.87;1.30;;;4.00;99.90;;;;;;4952125;28;20207;-73
2023/03/27 04:16:13;;;;;;;5.43;1.57;;;4.00;99.90;;;;;;4952945;28;20198;-71
2023/03/27 04:18:40;;;;;;;2.87;1.60;;;4.00;99.90;;;;;;4951081;28;20211;-73
2023/03/27 04:21:13;;;;;;;2.63;2.00;;;3.90;99.90;;;;;;4952336;28;20211;-73
2023/03/27 04:23:40;;;;;;;3.00;1.60;;;3.90;99.90;;;;;;4952322;28;20612;-71
2023/03/27 04:26:06;;;;;;;2.20;1.20;;;3.80;99.90;;;;;;4950948;28;20246;-73
2023/03/27 04:28:33;;;;;;;3.47;1.40;;;3.90;99.90;;;;;;4952632;28;20270;-73
2023/03/27 04:31:06;;;;;;;2.60;1.20;;;3.90;99.90;;;;;;4951008;28;20174;-73
2023/03/27 04:33:33;;;;;;;2.13;1.33;;;3.80;99.90;;;;;;4950971;28;20283;-73
2023/03/27 04:36:00;;;;;;;5.00;1.40;;;3.80;99.90;;;;;;4951805;28;20210;-73
2023/03/27 04:38:26;;;;;;;2.93;1.40;;;3.70;99.90;;;;;;4952145;28;20212;-73
2023/03/27 04:40:53;;;;;;;4.90;1.40;;;3.70;99.90;;;;;;4951367;28;20210;-73
2023/03/27 04:43:19;;;;;;;4.40;1.50;;;3.70;99.90;;;;;;4953053;28;20166;-74
2023/03/27 04:45:47;;;;;;;3.73;1.40;;;3.70;99.90;;;;;;4950574;28;20210;-73
2023/03/27 04:48:14;;;;;;;4.13;1.30;;;3.70;99.90;;;;;;4946770;28;20727;-73
2023/03/27 04:50:43;;;;;;;3.07;1.20;;;3.70;99.90;;;;;;4951992;28;20209;-71
2023/03/27 04:53:09;;;;;;;3.40;1.53;;;3.70;99.90;;;;;;4951538;28;20221;-73
2023/03/27 04:55:37;;;;;;;3.37;1.47;;;3.70;99.90;;;;;;4951946;28;20213;-73
2023/03/27 04:58:04;;;;;;;4.80;1.60;;;3.80;99.90;;;;;;4950390;28;20712;-72
2023/03/27 05:00:30;;;;;;;2.23;1.40;;;3.80;99.90;;;;;;4951883;28;20281;-71
2023/03/27 05:02:56;;;;;;;3.17;1.63;;;3.70;99.90;;;;;;4951382;28;20262;-72
2023/03/27 05:05:22;;;;;;;2.17;1.03;;;3.70;99.90;;;;;;4949798;28;20752;-72
2023/03/27 05:07:48;;;;;;;2.73;1.23;;;3.70;99.90;;;;;;4951857;28;20352;-72
2023/03/27 05:10:16;;;;;;;2.97;1.10;;;3.70;99.90;;;;;;4942920;28;20225;-72
2023/03/27 05:12:46;;;;;;;3.90;1.50;;;3.60;99.90;;;;;;4950475;28;20308;-74
2023/03/27 05:15:13;;;;;;;4.33;1.43;;;3.50;99.90;;;;;;4971009;28;20201;-73
2023/03/27 05:17:39;;;;;;;2.80;1.50;;;3.50;99.90;;;;;;4976744;28;20736;-71
2023/03/27 05:20:15;;;;;;;4.23;1.77;;;3.50;99.90;;;;;;4976335;28;20209;-72
2023/03/27 05:22:42;;;;;;;4.23;1.57;;;3.50;99.90;;;;;;4973219;28;20178;-71
2023/03/27 05:25:09;;;;;;;6.57;1.47;;;3.60;99.90;;;;;;4977398;28;20208;-72
2023/03/27 05:27:35;;;;;;;2.17;1.20;;;3.60;99.90;;;;;;4970282;28;20245;-71
2023/03/27 05:30:01;;;;;;;3.20;1.50;;;3.70;99.90;;;;;;4971328;28;20700;-72
2023/03/27 05:32:26;;;;;;;2.87;1.57;;;3.80;99.90;;;;;;4975291;28;20206;-72
2023/03/27 05:34:55;;;;;;;2.10;1.43;;;3.70;99.90;;;;;;4975197;28;20214;-73
2023/03/27 05:37:21;;;;;;;3.83;1.67;;;3.80;99.90;;;;;;4973619;28;20209;-74
2023/03/27 05:39:47;;;;;;;3.80;1.67;;;3.90;99.90;;;;;;4972715;28;20226;-73
2023/03/27 05:42:14;;;;;;;3.83;1.60;;;4.00;99.90;;;;;;4973841;28;20638;-72
2023/03/27 05:44:41;;;;;;;1.93;1.10;;;4.10;99.90;;;;;;4972272;28;20212;-72
2023/03/27 05:47:09;;;;;;;3.97;1.90;;;4.40;99.90;;;;;;4971521;28;20218;-73
2023/03/27 05:49:35;;;;;;;5.40;2.33;;;6.30;99.90;;;;;;4969348;28;20602;-73
2023/03/27 05:52:01;;;;;;;5.20;1.57;;;8.20;99.90;;;;;;4978598;28;20187;-73
2023/03/27 05:54:26;;;;;;;5.80;1.73;;;9.60;99.90;;;;;;4984572;28;20205;-71
2023/03/27 05:56:52;;;;;;;3.33;1.40;;;10.80;99.90;;;;;;4980809;28;20293;-73
2023/03/27 05:59:18;;;;;;;3.83;1.60;;;11.90;99.90;;;;;;4982029;28;20292;-74
2023/03/27 06:01:44;;;;;;;2.72;1.30;;;12.90;99.90;;;;;;4979854;28;20175;-74
2023/03/27 06:04:11;;;;;;;2.25;1.05;;;13.60;99.90;;;;;;4983458;28;20302;-75
2023/03/27 06:06:37;;;;;;;5.65;1.65;;;13.70;99.90;;;;;;4973972;28;20527;-73
2023/03/27 06:09:03;;;;;;;2.10;1.58;;;14.60;99.90;;;;;;4980419;28;20203;-72
2023/03/27 06:11:29;;;;;;;2.00;1.15;;;14.90;99.90;;;;;;4978539;28;20206;-73
2023/03/27 06:13:55;;;;;;;2.63;1.50;;;14.80;99.90;;;;;;4977226;28;20550;-73
2023/03/27 06:16:21;;;;;;;2.72;1.45;;;15.10;99.90;;;;;;4976366;28;20265;-75
2023/03/27 06:18:47;;;;;;;3.35;1.45;;;15.50;99.90;;;;;;4973111;28;20214;-71
2023/03/27 06:21:12;;;;;;;3.85;1.50;;;16.00;99.90;;;;;;4975862;28;20236;-70
2023/03/27 06:23:38;;;;;;;3.15;1.10;;;16.40;99.90;;;;;;4974726;28;20232;-71
2023/03/27 06:26:04;;;;;;;4.57;1.35;;;16.30;99.90;;;;;;4973517;28;20696;-71
2023/03/27 06:28:30;;;;;;;3.08;1.60;;;16.60;99.90;;;;;;4977368;28;20255;-72
2023/03/27 06:30:59;;;;;;;2.97;1.92;;;16.10;99.90;;;;;;4977638;28;20186;-71
2023/03/27 06:33:28;;;;;;;7.35;2.28;;;16.70;99.60;;;;;;4983200;28;20696;-72
2023/03/27 06:35:58;;;;;;;1.95;1.23;;;17.00;98.60;;;;;;4975978;28;20254;-71
2023/03/27 06:38:31;;;;;;;2.67;1.38;;;16.60;98.10;;;;;;4978464;28;20248;-71
2023/03/27 06:40:58;;;;;;;2.40;1.50;;;15.70;99.30;;;;;;4977554;28;20708;-71
2023/03/27 06:43:24;;;;;;;1.70;1.30;;;14.50;99.90;;;;;;4978893;28;20174;-71
2023/03/27 06:45:50;;;;;;;2.63;1.60;;;12.90;99.90;;;;;;4977815;28;20264;-71
2023/03/27 06:48:18;;;;;;;3.45;2.45;;;11.80;99.90;;;;;;4976060;28;20221;-73
2023/03/27 06:50:45;;;;;;;3.10;1.58;;;10.50;99.90;;;;;;4974734;28;20230;-73
2023/03/27 06:53:15;;;;;;;1.65;1.17;;;9.70;99.90;;;;;;4975969;28;20224;-73
2023/03/27 06:55:41;;;;;;;1.77;1.45;;;8.90;99.90;;;;;;4973239;28;20202;-73
2023/03/27 06:58:07;;;;;;;2.80;1.60;;;8.20;99.90;;;;;;4976013;28;20186;-73
2023/03/27 07:00:34;;;;;;;3.87;1.47;;;8.00;99.90;;;;;;4971128;28;20214;-71
2023/03/27 07:03:07;;;;;;;3.53;1.43;;;8.00;99.90;;;;;;4973697;28;20224;-71
2023/03/27 07:05:35;;;;;;;3.53;1.40;;;8.10;99.90;;;;;;4969041;28;20225;-73
2023/03/27 07:08:06;;;;;;;7.13;1.80;;;8.30;99.90;;;;;;4971896;28;20210;-73
2023/03/27 07:10:33;;;;;;;2.33;1.30;;;9.30;99.90;;;;;;4982593;28;20534;-74
2023/03/27 07:12:59;;;;;;;2.77;1.33;;;11.20;99.90;;;;;;4975686;28;20205;-74
2023/03/27 07:15:25;;;;;;;4.05;2.20;;;12.90;99.90;;;;;;4981525;28;20202;-71
2023/03/27 07:17:54;;;;;;;3.40;1.70;;;14.30;99.90;;;;;;4975974;28;20222;-72
2023/03/27 07:20:20;;;;;;;4.13;2.35;;;15.60;99.90;;;;;;4987118;28;20202;-72
2023/03/27 07:22:46;;;;;;;3.65;1.60;;;16.70;99.90;;;;;;4971925;28;20225;-72
2023/03/27 07:25:11;;;;;;;1.98;1.42;;;17.40;99.90;;;;;;4979177;28;20175;-72
2023/03/27 07:27:38;;;;;;;6.05;2.30;;;17.00;99.20;;;;;;4967509;28;20316;-71
2023/03/27 07:30:06;;;;;;;8.50;1.52;;;17.50;98.10;;;;;;4956369;28;20214;-72
2023/03/27 07:32:33;;;;;;;1.52;1.20;;;16.90;97.00;;;;;;4954021;28;20242;-72
2023/03/27 07:34:59;;;;;;;4.25;2.50;;;17.10;97.70;;;;;;4954954;28;20298;-71
2023/03/27 07:37:26;;;;;;;2.08;1.40;;;17.80;96.60;;;;;;4953605;28;20342;-72
2023/03/27 07:39:51;;;;;;;3.85;1.90;;;17.50;95.20;;;;;;4952902;28;20648;-72
2023/03/27 07:42:18;;;;;;;2.83;1.48;;;17.00;95.70;;;;;;4953713;28;20324;-73
2023/03/27 07:44:44;;;;;;;4.07;1.48;;;17.10;95.50;;;;;;4951796;28;20218;-75
2023/03/27 07:47:09;;;;;;;3.45;1.52;;;14.80;96.60;;;;;;4955872;28;20227;-73
2023/03/27 07:49:35;;;;;;;3.38;2.08;;;13.30;99.80;;;;;;4963234;28;20182;-73
2023/03/27 07:52:01;;;;;;;2.40;1.85;;;12.50;99.90;;;;;;4960535;28;20238;-73
2023/03/27 07:54:28;;;;;;;2.58;1.38;;;12.00;99.90;;;;;;4962636;28;20225;-73
2023/03/27 07:56:54;;;;;;;3.28;1.55;;;12.00;99.90;;;;;;4961811;28;20215;-73
2023/03/27 07:59:20;;;;;;;2.42;1.42;;;11.40;99.90;;;;;;4956457;28;20280;-73
2023/03/27 08:01:49;;;;;;;2.80;1.55;;;10.50;99.90;;;;;;4944732;28;20232;-73
2023/03/27 08:04:16;;;;;;;2.07;1.30;;;9.90;99.90;;;;;;4949257;28;20178;-73
2023/03/27 08:06:42;;;;;;;2.77;1.40;;;9.30;99.90;;;;;;4949591;28;20723;-72
2023/03/27 08:09:09;;;;;;;2.00;1.53;;;9.00;99.90;;;;;;4949346;28;20227;-75
2023/03/27 08:11:37;;;;;;;2.67;1.50;;;8.80;99.90;;;;;;4948977;28;20302;-70
2023/03/27 08:14:03;;;;;;;3.60;1.60;;;8.50;99.90;;;;;;4947668;28;20581;-73
2023/03/27 08:16:29;;;;;;;4.03;1.53;;;8.50;99.90;;;;;;4948586;28;20206;-72
2023/03/27 08:18:56;;;;;;;3.00;1.63;;;8.40;99.90;;;;;;4948408;28;20187;-72
2023/03/27 08:21:22;;;;;;;8.37;4.67;;;9.50;99.90;;;;;;4948722;28;20221;-73
2023/03/27 08:23:48;;;;;;;3.17;1.40;;;11.10;99.90;;;;;;4946878;28;20585;-73
2023/03/27 08:26:14;;;;;;;2.67;1.37;;;12.50;99.90;;;;;;4949669;28;20303;-73
2023/03/27 08:28:40;;;;;;;1.90;1.23;;;13.90;99.90;;;;;;4946841;28;20202;-73
2023/03/27 08:31:12;;;;;;;2.22;1.00;;;13.90;99.90;;;;;;4949632;28;20242;-72
2023/03/27 08:33:40;;;;;;;2.45;1.23;;;12.70;99.90;;;;;;4946727;28;20712;-73
2023/03/27 08:36:07;;;;;;;2.80;1.10;;;12.00;99.90;;;;;;4961302;28;20221;-75
2023/03/27 08:38:33;;;;;;;2.60;1.13;;;11.00;99.90;;;;;;4966579;28;20214;-75
2023/03/27 08:41:00;;;;;;;1.10;0.97;;;10.20;99.90;;;;;;4967369;28;20264;-75
2023/03/27 08:43:36;;;;;;;2.40;1.03;;;10.00;99.90;;;;;;4966284;28;20202;-75
2023/03/27 08:46:14;;;;;;;2.63;1.30;;;9.60;99.90;;;;;;4964939;28;20221;-71
2023/03/27 08:48:56;;;;;;;1.20;1.03;;;9.40;99.90;;;;;;4966072;28;20300;-74
2023/03/27 08:51:26;;;;;;;5.20;1.80;;;9.10;99.90;;;;;;4967443;28;20225;-72
2023/03/27 08:54:07;;;;;;;2.87;1.60;;;9.00;99.90;;;;;;4966185;28;20218;-73
2023/03/27 08:56:33;;;;;;;1.93;1.43;;;8.40;99.90;;;;;;4962289;28;20934;-71
2023/03/27 08:59:00;;;;;;;2.60;1.07;;;8.30;99.90;;;;;;4963673;28;20796;-72
2023/03/27 09:01:44;;;;;;;3.15;1.73;;;8.60;99.90;;;;;;4961793;28;20496;-71
2023/03/27 09:04:19;;;;;;;3.87;1.50;;;9.30;99.90;;;;;;4963411;28;20178;-72
2023/03/27 09:06:55;;;;;;;3.03;1.40;;;9.10;99.90;;;;;;4966564;28;20217;-74
2023/03/27 09:10:00;;;;;;;4.40;1.87;;;8.90;99.90;;;;;;4962486;28;21113;-77
2023/03/27 09:12:31;;;;;;;3.90;1.77;;;8.70;99.90;;;;;;4967394;28;20292;-72
2023/03/27 09:15:08;;;;;;;2.83;1.83;;;8.60;99.90;;;;;;4971871;28;20217;-72
2023/03/27 09:17:50;;;;;;;2.90;1.80;;;8.70;99.90;;;;;;4972381;28;20255;-72
2023/03/27 09:20:19;;;;;;;2.43;1.20;;;9.40;99.90;;;;;;4966005;28;20222;-75
2023/03/27 09:23:09;;;;;;;3.27;1.23;;;10.00;99.90;;;;;;4968696;28;20178;-70
2023/03/27 09:25:39;;;;;;;2.57;1.37;;;10.40;99.90;;;;;;4969482;28;20542;-72
2023/03/27 09:28:20;;;;;;;4.20;1.40;;;10.20;99.90;;;;;;4973856;28;20244;-73
2023/03/27 09:30:46;;;;;;;4.73;1.20;;;10.10;99.90;;;;;;4972926;28;20470;-74
2023/03/27 09:33:12;;;;;;;11.07;4.10;;;10.30;99.90;;;;;;4975105;28;20231;-74
2023/03/27 09:35:38;;;;;;;7.80;4.60;;;11.10;99.90;;;;;;4972850;28;20569;-74
2023/03/27 09:38:30;;;;;;;12.40;2.27;;;11.20;99.90;;;;;;4972616;28;20305;-74
2023/03/27 09:40:58;;;;;;;3.07;1.30;;;10.60;99.90;;;;;;4972373;28;20267;-73
2023/03/27 09:43:28;;;;;;;1.07;0.83;;;10.50;99.90;;;;;;4979696;28;20178;-74
2023/03/27 09:45:56;;;;;;;2.97;1.47;;;10.40;99.90;;;;;;4980524;28;20214;-74
2023/03/27 09:48:31;;;;;;;1.60;1.17;;;11.10;99.90;;;;;;4985741;28;20215;-74
2023/03/27 09:50:57;;;;;;;1.63;1.03;;;10.60;99.90;;;;;;4967998;28;20214;-74
2023/03/27 09:53:24;;;;;;;1.03;0.93;;;10.20;99.90;;;;;;4975503;28;20210;-74
2023/03/27 09:55:59;;;;;;;4.03;1.57;;;10.20;99.90;;;;;;4973582;28;20202;-75
2023/03/27 09:58:30;;;;;;;3.40;1.33;;;10.20;99.90;;;;;;4969133;28;20252;-74
2023/03/27 10:01:27;;;;;;;2.50;1.50;;;9.60;99.90;;;;;;4972284;28;20665;-74
2023/03/27 10:03:56;;;;;;;1.73;0.97;;;9.20;99.90;;;;;;4968139;28;20202;-74
2023/03/27 10:06:41;;;;;;;4.53;1.97;;;8.90;99.90;;;;;;4963417;28;20210;-73
2023/03/27 10:09:19;;;;;;;1.57;1.00;;;9.30;99.90;;;;;;4951794;28;20210;-73
2023/03/27 10:11:48;;;;;;;3.50;1.30;;;9.50;99.90;;;;;;4950090;28;20213;-74
2023/03/27 10:14:18;;;;;;;3.00;1.10;;;9.60;99.90;;;;;;4951278;28;20294;-73
2023/03/27 10:16:46;;;;;;;3.47;0.73;;;9.60;99.90;;;;;;4951637;28;20191;-73
2023/03/27 10:19:34;;;;;;;6.40;1.50;;;8.80;99.90;;;;;;4952017;28;20539;-73
2023/03/27 10:22:06;;;;;;;3.50;1.13;;;8.80;99.90;;;;;;4953403;28;20227;-73
2023/03/27 10:24:34;;;;;;;3.07;1.20;;;8.80;99.90;;;;;;4952824;28;20226;-74
2023/03/27 10:27:05;;;;;;;5.10;1.87;;;8.70;99.90;;;;;;4947573;28;20557;-73
2023/03/27 10:29:34;;;;;;;4.17;1.30;;;9.20;99.90;;;;;;4977276;28;20686;-73
2023/03/27 10:32:02;;;;;;;0.80;0.80;;;9.70;99.90;;;;;;4977880;28;20611;-73
2023/03/27 10:34:33;;;;;;;2.23;1.03;;;10.10;99.90;;;;;;4979403;28;20190;-74
2023/03/27 10:37:02;;;;;;;2.33;0.90;;;10.00;99.90;;;;;;4970274;28;20195;-74
2023/03/27 10:39:33;;;;;;;2.47;1.10;;;9.40;99.90;;;;;;4977022;28;20209;-75
2023/03/27 10:42:06;;;;;;;2.80;1.10;;;8.30;99.90;;;;;;4975471;28;20202;-79
2023/03/27 10:44:33;;;;;;;4.30;1.30;;;8.20;99.90;;;;;;4976888;28;20209;-76
2023/03/27 10:46:58;;;;;;;2.23;1.17;;;8.40;99.90;;;;;;4974212;28;20225;-75
2023/03/27 10:49:27;;;;;;;2.53;1.10;;;8.70;99.90;;;;;;4972977;28;20170;-75
2023/03/27 10:52:19;;;;;;;2.07;0.90;;;8.40;99.90;;;;;;4973593;28;20198;-75
2023/03/27 10:54:57;;;;;;;4.00;1.93;;;8.20;99.90;;;;;;4971993;28;20209;-76
2023/03/27 10:57:27;;;;;;;3.57;1.70;;;8.30;99.90;;;;;;4958031;28;20306;-76
2023/03/27 11:00:12;;;;;;;1.10;1.00;;;8.30;99.90;;;;;;4954161;28;20230;-75
2023/03/27 11:03:20;;;;;;;3.60;1.40;;;8.00;99.90;;;;;;4963516;28;20205;-75
2023/03/27 11:05:52;;;;;;;4.07;1.60;;;7.80;99.90;;;;;;4974010;28;20279;-75
2023/03/27 11:08:38;;;;;;;1.83;1.17;;;7.60;99.90;;;;;;4980700;28;20214;-75
2023/03/27 11:11:39;;;;;;;3.77;1.77;;;7.80;99.90;;;;;;4975081;28;20205;-76
2023/03/27 11:14:14;;;;;;;1.90;1.30;;;8.20;99.90;;;;;;4975055;28;20783;-75
2023/03/27 11:16:54;;;;;;;3.23;1.60;;;8.50;99.90;;;;;;4989758;28;20544;-76
2023/03/27 11:19:54;;;;;;;4.37;1.37;;;8.70;99.90;;;;;;4967530;28;20212;-75
2023/03/27 11:22:31;;;;;;;2.33;1.00;;;9.10;99.90;;;;;;4966379;28;20222;-79
2023/03/27 11:25:18;;;;;;;3.53;0.90;;;9.10;99.90;;;;;;4950386;28;20229;-79
2023/03/27 11:27:59;;;;;;;1.60;1.00;;;9.10;99.90;;;;;;4967811;28;20233;-76
2023/03/27 11:30:30;;;;;;;2.40;0.80;;;8.90;99.90;;;;;;4950864;28;20582;-77
2023/03/27 11:33:33;;;;;;;2.33;1.17;;;8.80;99.90;;;;;;4960558;28;20215;-77
2023/03/27 11:36:54;;;;;;;1.40;1.03;;;8.90;99.90;;;;;;4964808;28;20233;-78
2023/03/27 11:39:22;;;;;;;3.00;1.20;;;9.00;99.90;;;;;;4936682;28;20263;-78
2023/03/27 11:41:56;;;;;;;3.40;1.17;;;9.30;99.90;;;;;;4959012;28;20248;-79
2023/03/27 11:44:24;;;;;;;2.80;1.00;;;9.30;99.90;;;;;;4954952;28;20226;-78
2023/03/27 11:46:55;;;;;;;5.37;1.37;;;9.20;99.90;;;;;;4954342;28;20278;-78
2023/03/27 11:49:26;;;;;;;3.70;1.47;;;9.40;99.90;;;;;;4941323;28;20183;-75
2023/03/27 11:52:19;;;;;;;3.43;0.90;;;9.30;99.90;;;;;;4959027;28;20298;-77
2023/03/27 11:55:05;;;;;;;2.57;1.17;;;9.20;99.90;;;;;;4946799;28;20210;-79
2023/03/27 11:57:39;;;;;;;5.87;2.07;;;9.40;99.90;;;;;;4949949;28;20231;-79
2023/03/27 12:00:12;;;;;;;1.23;1.00;;;9.20;99.90;;;;;;4952023;28;20210;-78
2023/03/27 12:03:10;;;;;;;4.73;1.33;;;9.00;99.90;;;;;;4958171;28;20194;-79
2023/03/27 12:05:54;;;;;;;7.40;1.40;;;8.90;99.90;;;;;;4972107;28;20225;-80
2023/03/27 12:09:02;;;;;;;3.07;1.10;;;8.90;99.90;;;;;;4956380;28;20285;-78
2023/03/27 12:11:28;;;;;;;2.83;1.50;;;8.80;99.90;;;;;;4964346;28;20256;-76
2023/03/27 12:14:06;;;;;;;3.43;1.63;;;8.40;99.90;;;;;;4972232;28;20776;-74
2023/03/27 12:16:58;;;;;;;3.00;1.23;;;8.60;99.90;;;;;;4969456;28;20217;-77
2023/03/27 12:19:37;;;;;;;4.23;1.20;;;8.30;99.90;;;;;;4975979;28;20212;-78
2023/03/27 12:22:06;;;;;;;2.60;1.00;;;8.40;99.90;;;;;;4975456;28;20272;-77
2023/03/27 12:24:53;;;;;;;3.47;1.20;;;8.70;99.90;;;;;;4981204;28;20242;-80
2023/03/27 12:27:41;;;;;;;2.70;1.40;;;8.70;99.90;;;;;;4973554;28;20222;-76
2023/03/27 12:30:26;;;;;;;2.40;1.20;;;8.60;99.90;;;;;;4976793;28;20253;-77
2023/03/27 12:32:51;;;;;;;2.13;1.30;;;8.60;99.90;;;;;;4977691;28;20209;-76
2023/03/27 12:35:20;;;;;;;3.37;1.60;;;8.70;99.90;;;;;;4967130;28;20199;-77
2023/03/27 12:38:06;;;;;;;2.67;1.30;;;8.60;99.90;;;;;;4977430;28;20712;-78
2023/03/27 12:40:35;;;;;;;2.57;1.20;;;8.50;99.90;;;;;;4972151;28;20216;-77
2023/03/27 12:43:22;;;;;;;5.50;1.37;;;8.20;99.90;;;;;;4971142;28;20542;-76
2023/03/27 12:46:22;;;;;;;3.03;1.77;;;8.50;99.90;;;;;;4969855;28;20217;-77
2023/03/27 12:48:59;;;;;;;3.30;0.97;;;8.80;99.90;;;;;;4978132;28;20226;-82
2023/03/27 12:51:56;;;;;;;5.90;2.17;;;9.10;99.90;;;;;;4972145;28;20213;-80
2023/03/27 12:54:26;;;;;;;4.63;2.37;;;9.30;99.90;;;;;;4968760;28;20206;-74
2023/03/27 12:57:21;;;;;;;3.00;1.40;;;9.20;99.90;;;;;;4976861;28;20229;-77
2023/03/27 12:59:47;;;;;;;5.93;1.53;;;8.90;99.90;;;;;;4964288;28;20205;-75
2023/03/27 13:02:30;;;;;;;2.90;1.27;;;8.60;99.90;;;;;;4974277;28;20206;-75
2023/03/27 13:04:59;;;;;;;4.47;1.67;;;8.40;99.90;;;;;;4975601;28;20257;-77
2023/03/27 13:07:33;;;;;;;2.00;1.23;;;7.60;99.90;;;;;;4982616;28;20245;-78
2023/03/27 13:10:16;;;;;;;3.53;1.67;;;7.40;99.90;;;;;;4977501;28;20237;-79
2023/03/27 13:13:19;;;;;;;4.40;1.30;;;7.50;99.90;;;;;;4972107;28;20300;-77
2023/03/27 13:16:29;;;;;;;3.63;1.50;;;7.70;99.90;;;;;;4954357;28;20218;-76
2023/03/27 13:19:24;;;;;;;4.93;1.57;;;7.70;99.90;;;;;;4949931;28;20203;-76
2023/03/27 13:22:22;;;;;;;1.63;0.93;;;8.00;99.90;;;;;;4945012;28;20624;-80
2023/03/27 13:25:04;;;;;;;2.80;1.40;;;8.10;99.90;;;;;;4949804;28;20210;-75
2023/03/27 13:27:33;;;;;;;2.33;1.20;;;8.30;99.90;;;;;;4952395;28;20229;-78
2023/03/27 13:29:59;;;;;;;1.97;1.10;;;8.50;99.90;;;;;;4960932;28;20194;-74
2023/03/27 13:32:39;;;;;;;5.70;1.80;;;8.20;99.90;;;;;;4969102;28;20214;-75
2023/03/27 13:35:20;;;;;;;4.00;2.13;;;8.00;99.90;;;;;;4974793;28;20234;-75